EWG6871 LOWG-LEPA
Flight info
| Callsign | EWG6871 |
|---|---|
| Flight time | 1h 54m |
| Altitude | 37000 |
| Route | RADLY DCT RIFEN DCT BETMU DCT PIDAD DCT TALEP DCT RARQU DCT BALEN/N0401F290 UT250 RIXOT |
| Aircraft | A320/M-SDE3FGHIRWY/LB1 |
Departure
| Time | 2026-05-01 08:20 |
|---|---|
| Airport | Graz Airport (LOWG) |
Arrival
| Time | 2026-05-01 10:14 |
|---|---|
| Airport | Palma de Mallorca Airport (LEPA) |
| Time | Latitude | Longitude | Altitude | Speed | Heading |
|---|---|---|---|---|---|
| 2026-05-01 07:46 | 46.99792 | 15.44492 | 1108 ft | 0 kts | 169° |
| 2026-05-01 08:07 | 46.99814 | 15.44498 | 1109 ft | 3 kts | 197° |
| 2026-05-01 08:07 | 46.99839 | 15.44477 | 1110 ft | 3 kts | 104° |
| 2026-05-01 08:08 | 46.99843 | 15.44447 | 1116 ft | 4 kts | 84° |
| 2026-05-01 08:08 | 46.99829 | 15.44372 | 1108 ft | 4 kts | 79° |
| 2026-05-01 08:09 | 46.99819 | 15.44294 | 1108 ft | 4 kts | 79° |
| 2026-05-01 08:09 | 46.99814 | 15.44256 | 1109 ft | 4 kts | 79° |
| 2026-05-01 08:09 | 46.99810 | 15.44218 | 1111 ft | 4 kts | 90° |
| 2026-05-01 08:10 | 46.99812 | 15.44182 | 1110 ft | 1 kts | 95° |
| 2026-05-01 08:15 | 46.99812 | 15.44183 | 1110 ft | 0 kts | 89° |
| 2026-05-01 08:16 | 46.99816 | 15.44185 | 1109 ft | 0 kts | 45° |
| 2026-05-01 08:16 | 46.99824 | 15.44181 | 1107 ft | 3 kts | 352° |
| 2026-05-01 08:16 | 46.99867 | 15.44166 | 1106 ft | 8 kts | 344° |
| 2026-05-01 08:16 | 46.99926 | 15.44141 | 1106 ft | 10 kts | 344° |
| 2026-05-01 08:17 | 46.99995 | 15.44119 | 1106 ft | 10 kts | 350° |
| 2026-05-01 08:17 | 47.00072 | 15.44097 | 1106 ft | 13 kts | 349° |
| 2026-05-01 08:17 | 47.00167 | 15.44071 | 1109 ft | 16 kts | 349° |
| 2026-05-01 08:17 | 47.00283 | 15.44033 | 1107 ft | 18 kts | 338° |
| 2026-05-01 08:18 | 47.00366 | 15.43894 | 1110 ft | 20 kts | 303° |
| 2026-05-01 08:18 | 47.00373 | 15.43613 | 1107 ft | 7 kts | 160° |
| 2026-05-01 08:19 | 47.00098 | 15.43687 | 1106 ft | 68 kts | 169° |
| 2026-05-01 08:19 | 46.99407 | 15.43881 | 1110 ft | 131 kts | 169° |
| 2026-05-01 08:19 | 46.98349 | 15.44174 | 1206 ft | 172 kts | 170° |
| 2026-05-01 08:19 | 46.97105 | 15.44467 | 1677 ft | 185 kts | 168° |
| 2026-05-01 08:20 | 46.95841 | 15.44830 | 2479 ft | 184 kts | 172° |
| 2026-05-01 08:20 | 46.94590 | 15.44665 | 3293 ft | 174 kts | 201° |
| 2026-05-01 08:20 | 46.93616 | 15.43802 | 3897 ft | 164 kts | 218° |
| 2026-05-01 08:20 | 46.92674 | 15.42783 | 4426 ft | 175 kts | 215° |
| 2026-05-01 08:21 | 46.91630 | 15.41754 | 4918 ft | 186 kts | 212° |
| 2026-05-01 08:21 | 46.90478 | 15.40707 | 5368 ft | 206 kts | 211° |
| 2026-05-01 08:21 | 46.89204 | 15.39560 | 5826 ft | 224 kts | 210° |
| 2026-05-01 08:21 | 46.87815 | 15.38324 | 6258 ft | 245 kts | 210° |
| 2026-05-01 08:22 | 46.86288 | 15.36975 | 6732 ft | 267 kts | 208° |
| 2026-05-01 08:22 | 46.84598 | 15.35618 | 7262 ft | 286 kts | 206° |
| 2026-05-01 08:22 | 46.82795 | 15.34276 | 8028 ft | 295 kts | 205° |
| 2026-05-01 08:22 | 46.80943 | 15.32934 | 8910 ft | 300 kts | 205° |
| 2026-05-01 08:23 | 46.79055 | 15.31567 | 9783 ft | 306 kts | 205° |
| 2026-05-01 08:23 | 46.77112 | 15.30149 | 10385 ft | 323 kts | 205° |
| 2026-05-01 08:23 | 46.75033 | 15.28622 | 10729 ft | 345 kts | 206° |
| 2026-05-01 08:23 | 46.72939 | 15.27072 | 11357 ft | 354 kts | 205° |
| 2026-05-01 08:24 | 46.70726 | 15.25424 | 12115 ft | 360 kts | 205° |
| 2026-05-01 08:24 | 46.68479 | 15.23749 | 12877 ft | 366 kts | 205° |
| 2026-05-01 08:24 | 46.66231 | 15.21941 | 13604 ft | 373 kts | 212° |
| 2026-05-01 08:24 | 46.64211 | 15.19513 | 14305 ft | 381 kts | 225° |
| 2026-05-01 08:25 | 46.62542 | 15.16484 | 14933 ft | 387 kts | 236° |
| 2026-05-01 08:25 | 46.61505 | 15.14301 | 15371 ft | 390 kts | 236° |
| 2026-05-01 08:25 | 46.59446 | 15.09975 | 16211 ft | 396 kts | 236° |
| 2026-05-01 08:25 | 46.57866 | 15.06668 | 16891 ft | 401 kts | 236° |
| 2026-05-01 08:26 | 46.56787 | 15.04414 | 17318 ft | 403 kts | 236° |
| 2026-05-01 08:26 | 46.55174 | 15.01048 | 17978 ft | 408 kts | 236° |
| 2026-05-01 08:26 | 46.53537 | 14.97645 | 18576 ft | 413 kts | 236° |
| 2026-05-01 08:26 | 46.51880 | 14.94206 | 19134 ft | 418 kts | 235° |
| 2026-05-01 08:27 | 46.50203 | 14.90735 | 19700 ft | 422 kts | 235° |
| 2026-05-01 08:27 | 46.48505 | 14.87225 | 20206 ft | 427 kts | 235° |
| 2026-05-01 08:27 | 46.46791 | 14.83682 | 20772 ft | 431 kts | 235° |
| 2026-05-01 08:27 | 46.45062 | 14.80104 | 21326 ft | 435 kts | 235° |
| 2026-05-01 08:28 | 46.43314 | 14.76492 | 21851 ft | 440 kts | 235° |
| 2026-05-01 08:28 | 46.41543 | 14.72842 | 22337 ft | 445 kts | 235° |
| 2026-05-01 08:28 | 46.39751 | 14.69151 | 22773 ft | 450 kts | 235° |
| 2026-05-01 08:28 | 46.37965 | 14.65479 | 23258 ft | 455 kts | 235° |
| 2026-05-01 08:29 | 46.36133 | 14.61720 | 23817 ft | 459 kts | 234° |
| 2026-05-01 08:29 | 46.34283 | 14.57932 | 24199 ft | 463 kts | 235° |
| 2026-05-01 08:29 | 46.32415 | 14.54114 | 24614 ft | 466 kts | 235° |
| 2026-05-01 08:29 | 46.30515 | 14.50228 | 25034 ft | 468 kts | 234° |
| 2026-05-01 08:30 | 46.28629 | 14.46377 | 25460 ft | 471 kts | 235° |
| 2026-05-01 08:30 | 46.26727 | 14.42503 | 25864 ft | 474 kts | 235° |
| 2026-05-01 08:30 | 46.24813 | 14.38610 | 26256 ft | 477 kts | 235° |
| 2026-05-01 08:30 | 46.22883 | 14.34688 | 26636 ft | 481 kts | 235° |
| 2026-05-01 08:31 | 46.20941 | 14.30739 | 27033 ft | 484 kts | 235° |
| 2026-05-01 08:31 | 46.18986 | 14.26766 | 27429 ft | 486 kts | 235° |
| 2026-05-01 08:31 | 46.17020 | 14.22781 | 27821 ft | 489 kts | 235° |
| 2026-05-01 08:31 | 46.15034 | 14.18771 | 28180 ft | 492 kts | 235° |
| 2026-05-01 08:32 | 46.13064 | 14.14798 | 28560 ft | 495 kts | 235° |
| 2026-05-01 08:32 | 46.11027 | 14.10695 | 28925 ft | 498 kts | 235° |
| 2026-05-01 08:32 | 46.09002 | 14.06620 | 29289 ft | 501 kts | 234° |
| 2026-05-01 08:32 | 46.06963 | 14.02523 | 29603 ft | 505 kts | 235° |
| 2026-05-01 08:33 | 46.04941 | 13.98465 | 29970 ft | 506 kts | 235° |
| 2026-05-01 08:33 | 46.02890 | 13.94354 | 30414 ft | 507 kts | 235° |
| 2026-05-01 08:33 | 46.00826 | 13.90224 | 30735 ft | 509 kts | 235° |
| 2026-05-01 08:33 | 45.98756 | 13.86087 | 31036 ft | 511 kts | 236° |
| 2026-05-01 08:34 | 45.96672 | 13.81926 | 31332 ft | 513 kts | 236° |
| 2026-05-01 08:34 | 45.95661 | 13.79914 | 31478 ft | 514 kts | 236° |
| 2026-05-01 08:35 | 45.93965 | 13.76540 | 31719 ft | 514 kts | 235° |
| 2026-05-01 08:35 | 45.91869 | 13.72370 | 31979 ft | 516 kts | 236° |
| 2026-05-01 08:35 | 45.89765 | 13.68192 | 32364 ft | 516 kts | 236° |
| 2026-05-01 08:35 | 45.87771 | 13.64240 | 32741 ft | 515 kts | 236° |
| 2026-05-01 08:36 | 45.85642 | 13.60021 | 33141 ft | 514 kts | 237° |
| 2026-05-01 08:36 | 45.83745 | 13.55623 | 33523 ft | 511 kts | 243° |
| 2026-05-01 08:36 | 45.81967 | 13.51223 | 33911 ft | 510 kts | 243° |
| 2026-05-01 08:36 | 45.80188 | 13.46835 | 34286 ft | 509 kts | 243° |
| 2026-05-01 08:37 | 45.78432 | 13.42519 | 34665 ft | 507 kts | 243° |
| 2026-05-01 08:37 | 45.76633 | 13.38108 | 35035 ft | 506 kts | 243° |
| 2026-05-01 08:37 | 45.74881 | 13.33826 | 35369 ft | 504 kts | 243° |
| 2026-05-01 08:37 | 45.73112 | 13.29508 | 35726 ft | 502 kts | 243° |
| 2026-05-01 08:38 | 45.71350 | 13.25209 | 36089 ft | 499 kts | 243° |
| 2026-05-01 08:38 | 45.69595 | 13.20935 | 36432 ft | 497 kts | 243° |
| 2026-05-01 08:38 | 45.67846 | 13.16685 | 36783 ft | 495 kts | 243° |
| 2026-05-01 08:38 | 45.66104 | 13.12458 | 37125 ft | 492 kts | 243° |
| 2026-05-01 08:39 | 45.64366 | 13.08248 | 37350 ft | 491 kts | 243° |
| 2026-05-01 08:39 | 45.60917 | 12.99908 | 37391 ft | 484 kts | 243° |
| 2026-05-01 08:40 | 45.55807 | 12.87562 | 37405 ft | 480 kts | 243° |
| 2026-05-01 08:40 | 45.52405 | 12.79363 | 37396 ft | 480 kts | 243° |
| 2026-05-01 08:41 | 45.48989 | 12.71194 | 37412 ft | 480 kts | 242° |
| 2026-05-01 08:41 | 45.45561 | 12.63032 | 37422 ft | 480 kts | 242° |
| 2026-05-01 08:42 | 45.42143 | 12.54875 | 37428 ft | 479 kts | 242° |
| 2026-05-01 08:42 | 45.38783 | 12.46893 | 37399 ft | 478 kts | 242° |
| 2026-05-01 08:43 | 45.35365 | 12.38795 | 37420 ft | 477 kts | 242° |
| 2026-05-01 08:43 | 45.31946 | 12.30722 | 37428 ft | 476 kts | 242° |
| 2026-05-01 08:44 | 45.28524 | 12.22682 | 37432 ft | 475 kts | 242° |
| 2026-05-01 08:44 | 45.25109 | 12.14662 | 37439 ft | 474 kts | 242° |
| 2026-05-01 08:45 | 45.21698 | 12.06675 | 37429 ft | 473 kts | 242° |
| 2026-05-01 08:45 | 45.18287 | 11.98705 | 37387 ft | 472 kts | 242° |
| 2026-05-01 08:46 | 45.14881 | 11.90766 | 37415 ft | 471 kts | 242° |
| 2026-05-01 08:46 | 45.11472 | 11.82862 | 37423 ft | 469 kts | 242° |
| 2026-05-01 08:47 | 45.08068 | 11.74997 | 37418 ft | 468 kts | 242° |
| 2026-05-01 08:47 | 45.04669 | 11.67149 | 37405 ft | 467 kts | 242° |
| 2026-05-01 08:48 | 45.01277 | 11.59317 | 37397 ft | 467 kts | 242° |
| 2026-05-01 08:48 | 44.97873 | 11.51505 | 37359 ft | 466 kts | 242° |
| 2026-05-01 08:49 | 44.94467 | 11.43727 | 37386 ft | 465 kts | 242° |
| 2026-05-01 08:49 | 44.91064 | 11.35980 | 37393 ft | 464 kts | 242° |
| 2026-05-01 08:50 | 44.87672 | 11.28247 | 37396 ft | 463 kts | 242° |
| 2026-05-01 08:50 | 44.84311 | 11.20582 | 37393 ft | 463 kts | 242° |
| 2026-05-01 08:51 | 44.80928 | 11.12916 | 37386 ft | 462 kts | 242° |
| 2026-05-01 08:51 | 44.77526 | 11.05246 | 37386 ft | 462 kts | 242° |
| 2026-05-01 08:52 | 44.74121 | 10.97595 | 37378 ft | 461 kts | 242° |
| 2026-05-01 08:52 | 44.70716 | 10.89955 | 37374 ft | 461 kts | 242° |
| 2026-05-01 08:53 | 44.67316 | 10.82326 | 37370 ft | 461 kts | 242° |
| 2026-05-01 08:53 | 44.63814 | 10.74777 | 37367 ft | 461 kts | 240° |
| 2026-05-01 08:54 | 44.60204 | 10.67336 | 37367 ft | 461 kts | 239° |
| 2026-05-01 08:54 | 44.56584 | 10.59912 | 37361 ft | 461 kts | 240° |
| 2026-05-01 08:55 | 44.53000 | 10.52486 | 37350 ft | 459 kts | 240° |
| 2026-05-01 08:55 | 44.49438 | 10.45067 | 37350 ft | 458 kts | 240° |
| 2026-05-01 08:56 | 44.45872 | 10.37688 | 37355 ft | 457 kts | 240° |
| 2026-05-01 08:56 | 44.42303 | 10.30334 | 37354 ft | 457 kts | 240° |
| 2026-05-01 08:57 | 44.38732 | 10.22984 | 37351 ft | 456 kts | 240° |
| 2026-05-01 08:57 | 44.35182 | 10.15710 | 37343 ft | 455 kts | 240° |
| 2026-05-01 08:58 | 44.31621 | 10.08418 | 37351 ft | 453 kts | 240° |
| 2026-05-01 08:58 | 44.28042 | 10.01108 | 37352 ft | 452 kts | 240° |
| 2026-05-01 08:59 | 44.24515 | 9.93921 | 37330 ft | 457 kts | 240° |
| 2026-05-01 08:59 | 44.20880 | 9.86516 | 37330 ft | 469 kts | 240° |
| 2026-05-01 09:00 | 44.17152 | 9.78965 | 37334 ft | 476 kts | 240° |
| 2026-05-01 09:00 | 44.13389 | 9.71373 | 37333 ft | 477 kts | 239° |
| 2026-05-01 09:01 | 44.09618 | 9.63782 | 37334 ft | 477 kts | 239° |
| 2026-05-01 09:01 | 44.05837 | 9.56195 | 37341 ft | 477 kts | 239° |
| 2026-05-01 09:02 | 44.02054 | 9.48616 | 37352 ft | 477 kts | 240° |
| 2026-05-01 09:02 | 43.98272 | 9.41037 | 37350 ft | 477 kts | 239° |
| 2026-05-01 09:03 | 43.94483 | 9.33485 | 37380 ft | 476 kts | 239° |
| 2026-05-01 09:03 | 43.90696 | 9.25953 | 37374 ft | 476 kts | 239° |
| 2026-05-01 09:04 | 43.86909 | 9.18430 | 37375 ft | 475 kts | 239° |
| 2026-05-01 09:04 | 43.83120 | 9.10934 | 37377 ft | 475 kts | 239° |
| 2026-05-01 09:05 | 43.79321 | 9.03452 | 37367 ft | 474 kts | 239° |
| 2026-05-01 09:05 | 43.75531 | 8.96023 | 37358 ft | 471 kts | 239° |
| 2026-05-01 09:06 | 43.71764 | 8.88612 | 37360 ft | 471 kts | 239° |
| 2026-05-01 09:06 | 43.67993 | 8.81209 | 37364 ft | 471 kts | 239° |
| 2026-05-01 09:07 | 43.63362 | 8.74756 | 37367 ft | 482 kts | 216° |
| 2026-05-01 09:07 | 43.60363 | 8.72636 | 37367 ft | 488 kts | 203° |
| 2026-05-01 09:07 | 43.57071 | 8.71448 | 37347 ft | 492 kts | 189° |
| 2026-05-01 09:08 | 43.50253 | 8.70752 | 37353 ft | 488 kts | 198° |
| 2026-05-01 09:08 | 43.47194 | 8.68910 | 37350 ft | 477 kts | 217° |
| 2026-05-01 09:08 | 43.44415 | 8.66418 | 37345 ft | 478 kts | 215° |
| 2026-05-01 09:09 | 43.38721 | 8.61650 | 37335 ft | 479 kts | 217° |
| 2026-05-01 09:09 | 43.33492 | 8.56081 | 37338 ft | 474 kts | 226° |
| 2026-05-01 09:10 | 43.29489 | 8.50947 | 37344 ft | 473 kts | 229° |
| 2026-05-01 09:10 | 43.24741 | 8.44693 | 37357 ft | 473 kts | 227° |
| 2026-05-01 09:11 | 43.19959 | 8.38700 | 37353 ft | 474 kts | 226° |
| 2026-05-01 09:11 | 43.14934 | 8.32626 | 37339 ft | 474 kts | 225° |
| 2026-05-01 09:12 | 43.09996 | 8.26673 | 37350 ft | 472 kts | 226° |
| 2026-05-01 09:12 | 43.05102 | 8.20706 | 37359 ft | 471 kts | 226° |
| 2026-05-01 09:13 | 43.00324 | 8.14856 | 37323 ft | 464 kts | 226° |
| 2026-05-01 09:13 | 42.97952 | 8.11973 | 37309 ft | 449 kts | 226° |
| 2026-05-01 09:13 | 42.95637 | 8.09173 | 37311 ft | 442 kts | 226° |
| 2026-05-01 09:14 | 42.91069 | 8.03642 | 37313 ft | 437 kts | 227° |
| 2026-05-01 09:14 | 42.86523 | 7.98141 | 37310 ft | 437 kts | 227° |
| 2026-05-01 09:15 | 42.81988 | 7.92664 | 37291 ft | 434 kts | 226° |
| 2026-05-01 09:15 | 42.77466 | 7.87223 | 37306 ft | 434 kts | 226° |
| 2026-05-01 09:16 | 42.72943 | 7.81788 | 37305 ft | 434 kts | 226° |
| 2026-05-01 09:17 | 42.66148 | 7.73660 | 37313 ft | 434 kts | 226° |
| 2026-05-01 09:17 | 42.59354 | 7.65553 | 37305 ft | 433 kts | 226° |
| 2026-05-01 09:18 | 42.52600 | 7.57484 | 37285 ft | 433 kts | 226° |
| 2026-05-01 09:19 | 42.45811 | 7.49427 | 37303 ft | 432 kts | 226° |
| 2026-05-01 09:20 | 42.39030 | 7.41396 | 37298 ft | 432 kts | 226° |
| 2026-05-01 09:21 | 42.29985 | 7.30732 | 37294 ft | 431 kts | 226° |
| 2026-05-01 09:21 | 42.23209 | 7.22759 | 37294 ft | 431 kts | 226° |
| 2026-05-01 09:22 | 42.14170 | 7.12156 | 37289 ft | 430 kts | 225° |
| 2026-05-01 09:23 | 42.07383 | 7.04242 | 37291 ft | 430 kts | 225° |
| 2026-05-01 09:24 | 42.00609 | 6.96330 | 37292 ft | 429 kts | 226° |
| 2026-05-01 09:25 | 41.91831 | 6.85495 | 37287 ft | 428 kts | 227° |
| 2026-05-01 09:26 | 41.85257 | 6.77421 | 37287 ft | 427 kts | 226° |
| 2026-05-01 09:26 | 41.78671 | 6.69413 | 37281 ft | 426 kts | 226° |
| 2026-05-01 09:27 | 41.72100 | 6.61442 | 37291 ft | 424 kts | 226° |
| 2026-05-01 09:28 | 41.67731 | 6.56139 | 37290 ft | 424 kts | 226° |
| 2026-05-01 09:28 | 41.63366 | 6.50844 | 37286 ft | 423 kts | 226° |
| 2026-05-01 09:29 | 41.56815 | 6.42927 | 37274 ft | 423 kts | 225° |
| 2026-05-01 09:30 | 41.50264 | 6.35036 | 37277 ft | 423 kts | 225° |
| 2026-05-01 09:30 | 41.43711 | 6.27164 | 37279 ft | 423 kts | 225° |
| 2026-05-01 09:31 | 41.39366 | 6.21964 | 37263 ft | 423 kts | 225° |
| 2026-05-01 09:32 | 41.32775 | 6.14103 | 37268 ft | 422 kts | 225° |
| 2026-05-01 09:32 | 41.26219 | 6.06291 | 37255 ft | 422 kts | 225° |
| 2026-05-01 09:33 | 41.21884 | 6.01131 | 37263 ft | 421 kts | 225° |
| 2026-05-01 09:34 | 41.15305 | 5.93341 | 37263 ft | 420 kts | 224° |
| 2026-05-01 09:34 | 41.08780 | 5.85622 | 37263 ft | 418 kts | 225° |
| 2026-05-01 09:35 | 41.02275 | 5.77931 | 37257 ft | 418 kts | 224° |
| 2026-05-01 09:36 | 40.97956 | 5.72867 | 37250 ft | 417 kts | 224° |
| 2026-05-01 09:36 | 40.93866 | 5.67484 | 37256 ft | 413 kts | 235° |
| 2026-05-01 09:37 | 40.90549 | 5.61295 | 37246 ft | 412 kts | 236° |
| 2026-05-01 09:37 | 40.85580 | 5.52028 | 37245 ft | 412 kts | 236° |
| 2026-05-01 09:38 | 40.80609 | 5.42781 | 37246 ft | 412 kts | 236° |
| 2026-05-01 09:39 | 40.75634 | 5.33552 | 37240 ft | 411 kts | 236° |
| 2026-05-01 09:39 | 40.72312 | 5.27412 | 37237 ft | 411 kts | 236° |
| 2026-05-01 09:40 | 40.67329 | 5.18209 | 37238 ft | 411 kts | 236° |
| 2026-05-01 09:41 | 40.63995 | 5.12090 | 37242 ft | 411 kts | 236° |
| 2026-05-01 09:41 | 40.59003 | 5.02907 | 37236 ft | 411 kts | 236° |
| 2026-05-01 09:42 | 40.55667 | 4.96793 | 37238 ft | 411 kts | 236° |
| 2026-05-01 09:42 | 40.52318 | 4.90676 | 37098 ft | 416 kts | 235° |
| 2026-05-01 09:43 | 40.48928 | 4.84495 | 36570 ft | 416 kts | 235° |
| 2026-05-01 09:43 | 40.47238 | 4.81419 | 36309 ft | 415 kts | 235° |
| 2026-05-01 09:43 | 40.45556 | 4.78356 | 36056 ft | 413 kts | 235° |
| 2026-05-01 09:44 | 40.42515 | 4.72024 | 35547 ft | 408 kts | 242° |
| 2026-05-01 09:44 | 40.41144 | 4.68772 | 35298 ft | 407 kts | 242° |
| 2026-05-01 09:44 | 40.39789 | 4.65578 | 35058 ft | 405 kts | 242° |
| 2026-05-01 09:45 | 40.38395 | 4.62319 | 34813 ft | 403 kts | 242° |
| 2026-05-01 09:45 | 40.35681 | 4.55975 | 34316 ft | 400 kts | 242° |
| 2026-05-01 09:45 | 40.34326 | 4.52794 | 34058 ft | 399 kts | 242° |
| 2026-05-01 09:46 | 40.32974 | 4.49621 | 33787 ft | 398 kts | 242° |
| 2026-05-01 09:46 | 40.31623 | 4.46462 | 33515 ft | 396 kts | 242° |
| 2026-05-01 09:46 | 40.30277 | 4.43322 | 33215 ft | 393 kts | 242° |
| 2026-05-01 09:46 | 40.28945 | 4.40220 | 32727 ft | 389 kts | 242° |
| 2026-05-01 09:47 | 40.27622 | 4.37144 | 32244 ft | 386 kts | 242° |
| 2026-05-01 09:47 | 40.26312 | 4.34092 | 31761 ft | 383 kts | 242° |
| 2026-05-01 09:47 | 40.25013 | 4.31064 | 31294 ft | 380 kts | 242° |
| 2026-05-01 09:47 | 40.23726 | 4.28059 | 30837 ft | 377 kts | 242° |
| 2026-05-01 09:48 | 40.22446 | 4.25082 | 30382 ft | 374 kts | 242° |
| 2026-05-01 09:48 | 40.21172 | 4.22127 | 29882 ft | 371 kts | 242° |
| 2026-05-01 09:48 | 40.19911 | 4.19208 | 29471 ft | 366 kts | 242° |
| 2026-05-01 09:48 | 40.18663 | 4.16329 | 29038 ft | 362 kts | 242° |
| 2026-05-01 09:49 | 40.17428 | 4.13488 | 28625 ft | 357 kts | 242° |
| 2026-05-01 09:49 | 40.16213 | 4.10680 | 28226 ft | 353 kts | 242° |
| 2026-05-01 09:49 | 40.15008 | 4.07898 | 27819 ft | 349 kts | 242° |
| 2026-05-01 09:49 | 40.13819 | 4.05147 | 27397 ft | 346 kts | 242° |
| 2026-05-01 09:50 | 40.12639 | 4.02418 | 26989 ft | 343 kts | 242° |
| 2026-05-01 09:50 | 40.11467 | 3.99713 | 26559 ft | 341 kts | 242° |
| 2026-05-01 09:50 | 40.10298 | 3.97024 | 26139 ft | 340 kts | 242° |
| 2026-05-01 09:50 | 40.09132 | 3.94350 | 25708 ft | 338 kts | 242° |
| 2026-05-01 09:51 | 40.07970 | 3.91686 | 25270 ft | 337 kts | 242° |
| 2026-05-01 09:51 | 40.06810 | 3.89025 | 24826 ft | 337 kts | 242° |
| 2026-05-01 09:51 | 40.05651 | 3.86369 | 24375 ft | 337 kts | 242° |
| 2026-05-01 09:51 | 40.04492 | 3.83713 | 23915 ft | 337 kts | 242° |
| 2026-05-01 09:52 | 40.03329 | 3.81055 | 23422 ft | 337 kts | 241° |
| 2026-05-01 09:52 | 40.02166 | 3.78405 | 22959 ft | 335 kts | 241° |
| 2026-05-01 09:52 | 40.01010 | 3.75773 | 22511 ft | 333 kts | 241° |
| 2026-05-01 09:52 | 39.99860 | 3.73154 | 22066 ft | 332 kts | 241° |
| 2026-05-01 09:53 | 39.98719 | 3.70547 | 21642 ft | 330 kts | 241° |
| 2026-05-01 09:53 | 39.97583 | 3.67948 | 21224 ft | 329 kts | 241° |
| 2026-05-01 09:53 | 39.96448 | 3.65362 | 20785 ft | 328 kts | 242° |
| 2026-05-01 09:53 | 39.95317 | 3.62785 | 20365 ft | 327 kts | 242° |
| 2026-05-01 09:54 | 39.94189 | 3.60214 | 19944 ft | 327 kts | 241° |
| 2026-05-01 09:54 | 39.93059 | 3.57648 | 19529 ft | 326 kts | 241° |
| 2026-05-01 09:54 | 39.91928 | 3.55087 | 19108 ft | 326 kts | 241° |
| 2026-05-01 09:54 | 39.90794 | 3.52524 | 18693 ft | 326 kts | 241° |
| 2026-05-01 09:55 | 39.89675 | 3.49995 | 18243 ft | 327 kts | 241° |
| 2026-05-01 09:55 | 39.88530 | 3.47405 | 17817 ft | 325 kts | 241° |
| 2026-05-01 09:55 | 39.87423 | 3.44892 | 17414 ft | 323 kts | 241° |
| 2026-05-01 09:55 | 39.86308 | 3.42358 | 17013 ft | 322 kts | 241° |
| 2026-05-01 09:56 | 39.85193 | 3.39838 | 16616 ft | 321 kts | 241° |
| 2026-05-01 09:56 | 39.84079 | 3.37330 | 16223 ft | 320 kts | 241° |
| 2026-05-01 09:56 | 39.82965 | 3.34830 | 15823 ft | 319 kts | 241° |
| 2026-05-01 09:56 | 39.81855 | 3.32339 | 15445 ft | 318 kts | 241° |
| 2026-05-01 09:57 | 39.81106 | 3.30658 | 15186 ft | 318 kts | 241° |
| 2026-05-01 09:57 | 39.80002 | 3.28176 | 14785 ft | 317 kts | 241° |
| 2026-05-01 09:57 | 39.78901 | 3.25699 | 14414 ft | 316 kts | 241° |
| 2026-05-01 09:57 | 39.77801 | 3.23224 | 14025 ft | 316 kts | 241° |
| 2026-05-01 09:58 | 39.76703 | 3.20756 | 13602 ft | 315 kts | 240° |
| 2026-05-01 09:58 | 39.75622 | 3.18336 | 13209 ft | 313 kts | 240° |
| 2026-05-01 09:58 | 39.74520 | 3.15871 | 12818 ft | 310 kts | 240° |
| 2026-05-01 09:58 | 39.73456 | 3.13487 | 12428 ft | 308 kts | 240° |
| 2026-05-01 09:59 | 39.72399 | 3.11126 | 12041 ft | 295 kts | 240° |
| 2026-05-01 09:59 | 39.71390 | 3.08875 | 11667 ft | 283 kts | 240° |
| 2026-05-01 09:59 | 39.70423 | 3.06714 | 11306 ft | 271 kts | 239° |
| 2026-05-01 09:59 | 39.69473 | 3.04593 | 10951 ft | 272 kts | 239° |
| 2026-05-01 10:00 | 39.68521 | 3.02471 | 10579 ft | 272 kts | 239° |
| 2026-05-01 10:00 | 39.67566 | 3.00346 | 10216 ft | 272 kts | 239° |
| 2026-05-01 10:00 | 39.66612 | 2.98223 | 9820 ft | 272 kts | 238° |
| 2026-05-01 10:00 | 39.65657 | 2.96100 | 9430 ft | 272 kts | 238° |
| 2026-05-01 10:01 | 39.64706 | 2.93987 | 9038 ft | 271 kts | 239° |
| 2026-05-01 10:01 | 39.63758 | 2.91880 | 8650 ft | 271 kts | 238° |
| 2026-05-01 10:01 | 39.62811 | 2.89772 | 8236 ft | 270 kts | 238° |
| 2026-05-01 10:01 | 39.61863 | 2.87663 | 7836 ft | 271 kts | 238° |
| 2026-05-01 10:02 | 39.60911 | 2.85545 | 7417 ft | 273 kts | 237° |
| 2026-05-01 10:02 | 39.59949 | 2.83409 | 7001 ft | 276 kts | 238° |
| 2026-05-01 10:02 | 39.58973 | 2.81250 | 6576 ft | 279 kts | 237° |
| 2026-05-01 10:02 | 39.57984 | 2.79064 | 6039 ft | 284 kts | 238° |
| 2026-05-01 10:03 | 39.56976 | 2.76833 | 5526 ft | 287 kts | 238° |
| 2026-05-01 10:03 | 39.55963 | 2.74590 | 5141 ft | 286 kts | 238° |
| 2026-05-01 10:03 | 39.54952 | 2.72359 | 4608 ft | 285 kts | 238° |
| 2026-05-01 10:03 | 39.54026 | 2.70321 | 4097 ft | 279 kts | 238° |
| 2026-05-01 10:04 | 39.53030 | 2.68121 | 3713 ft | 265 kts | 239° |
| 2026-05-01 10:04 | 39.52144 | 2.66167 | 3648 ft | 239 kts | 239° |
| 2026-05-01 10:04 | 39.51334 | 2.64383 | 3574 ft | 221 kts | 239° |
| 2026-05-01 10:04 | 39.50586 | 2.62730 | 3522 ft | 205 kts | 238° |
| 2026-05-01 10:05 | 39.49895 | 2.61206 | 3418 ft | 189 kts | 238° |
| 2026-05-01 10:05 | 39.49254 | 2.59792 | 3317 ft | 175 kts | 238° |
| 2026-05-01 10:05 | 39.48666 | 2.58495 | 3255 ft | 159 kts | 238° |
| 2026-05-01 10:05 | 39.48116 | 2.57286 | 3181 ft | 154 kts | 238° |
| 2026-05-01 10:06 | 39.47575 | 2.56096 | 3112 ft | 152 kts | 238° |
| 2026-05-01 10:06 | 39.47039 | 2.54917 | 3043 ft | 151 kts | 238° |
| 2026-05-01 10:06 | 39.46510 | 2.53738 | 2973 ft | 152 kts | 239° |
| 2026-05-01 10:06 | 39.45999 | 2.52546 | 2897 ft | 152 kts | 242° |
| 2026-05-01 10:07 | 39.45751 | 2.51253 | 2819 ft | 151 kts | 270° |
| 2026-05-01 10:07 | 39.45967 | 2.49922 | 2746 ft | 149 kts | 298° |
| 2026-05-01 10:07 | 39.46578 | 2.48868 | 2670 ft | 145 kts | 324° |
| 2026-05-01 10:07 | 39.47406 | 2.48270 | 2581 ft | 140 kts | 347° |
| 2026-05-01 10:08 | 39.49243 | 2.48507 | 2469 ft | 132 kts | 33° |
| 2026-05-01 10:08 | 39.49933 | 2.49253 | 2405 ft | 129 kts | 54° |
| 2026-05-01 10:08 | 39.50352 | 2.50266 | 2344 ft | 128 kts | 73° |
| 2026-05-01 10:09 | 39.50453 | 2.51408 | 2280 ft | 128 kts | 94° |
| 2026-05-01 10:09 | 39.50381 | 2.52560 | 2218 ft | 128 kts | 94° |
| 2026-05-01 10:09 | 39.50315 | 2.53711 | 2152 ft | 128 kts | 93° |
| 2026-05-01 10:09 | 39.50248 | 2.54861 | 2092 ft | 128 kts | 93° |
| 2026-05-01 10:10 | 39.50181 | 2.56016 | 2030 ft | 128 kts | 94° |
| 2026-05-01 10:10 | 39.50116 | 2.57166 | 1966 ft | 128 kts | 94° |
| 2026-05-01 10:10 | 39.49984 | 2.59465 | 1838 ft | 128 kts | 93° |
| 2026-05-01 10:11 | 39.49981 | 2.60615 | 1776 ft | 128 kts | 82° |
| 2026-05-01 10:11 | 39.50332 | 2.61661 | 1661 ft | 129 kts | 58° |
| 2026-05-01 10:11 | 39.50779 | 2.62667 | 1511 ft | 129 kts | 62° |
| 2026-05-01 10:11 | 39.51230 | 2.63666 | 1345 ft | 128 kts | 61° |
| 2026-05-01 10:12 | 39.51691 | 2.64665 | 1172 ft | 131 kts | 60° |
| 2026-05-01 10:12 | 39.52161 | 2.65670 | 1012 ft | 131 kts | 62° |
| 2026-05-01 10:12 | 39.53086 | 2.67666 | 744 ft | 127 kts | 60° |
| 2026-05-01 10:13 | 39.53565 | 2.68654 | 560 ft | 127 kts | 60° |
| 2026-05-01 10:13 | 39.54030 | 2.69618 | 318 ft | 126 kts | 59° |
| 2026-05-01 10:13 | 39.54493 | 2.70594 | 146 ft | 128 kts | 59° |
| 2026-05-01 10:14 | 39.55148 | 2.71992 | 28 ft | 39 kts | 60° |
| 2026-05-01 10:14 | 39.55268 | 2.72243 | 28 ft | 15 kts | 56° |
| 2026-05-01 10:14 | 39.55253 | 2.72355 | 27 ft | 8 kts | 144° |
| 2026-05-01 10:14 | 39.55219 | 2.72383 | 27 ft | 0 kts | 145° |
| 2026-05-01 10:16 | 39.55219 | 2.72384 | 27 ft | 2 kts | 145° |
| 2026-05-01 10:16 | 39.55211 | 2.72390 | 28 ft | 0 kts | 146° |
| 2026-05-01 10:18 | 39.55168 | 2.72427 | 28 ft | 7 kts | 147° |
| 2026-05-01 10:18 | 39.55140 | 2.72469 | 29 ft | 6 kts | 127° |
| 2026-05-01 10:18 | 39.55112 | 2.72496 | 29 ft | 4 kts | 147° |
| 2026-05-01 10:19 | 39.55089 | 2.72514 | 29 ft | 3 kts | 149° |
| 2026-05-01 10:19 | 39.55061 | 2.72536 | 29 ft | 5 kts | 144° |
| 2026-05-01 10:19 | 39.55043 | 2.72563 | 29 ft | 3 kts | 126° |
| 2026-05-01 10:20 | 39.55044 | 2.72595 | 30 ft | 1 kts | 88° |
| 2026-05-01 10:20 | 39.55045 | 2.72603 | 30 ft | 1 kts | 81° |
| 2026-05-01 10:20 | 39.55046 | 2.72606 | 30 ft | 1 kts | 68° |
| 2026-05-01 10:20 | 39.55049 | 2.72629 | 30 ft | 3 kts | 104° |
| 2026-05-01 10:21 | 39.55040 | 2.72636 | 30 ft | 1 kts | 151° |
| 2026-05-01 10:21 | 39.55033 | 2.72642 | 30 ft | 1 kts | 149° |
| 2026-05-01 10:21 | 39.55012 | 2.72659 | 30 ft | 3 kts | 147° |
| 2026-05-01 10:22 | 39.54990 | 2.72677 | 30 ft | 0 kts | 147° |